• Join FlightAware (Why Join?)
  • Login
  • US Flag 
09:18PM EDT


 

Airport Tracker/Info


-or-


 

Live Flight TrackerFlight Track Log ✈ AAL1459 ✈ 15-May-2013 ✈ KBOS - KORD

Flight Track Log - Related Links

Times and Time Zones

All times are in EDT time to prevent confusion due to time zone crossing. See the AAL1459 flight status page for this flight to view local times or setup timezone preferences in your user account.

Time Position Orientation Groundspeed Altitude Reporting Facility
EDT Latitude Longitude Course Direction KTS MPH feet Rate Location/Type
02:13PM 42.3140 -70.9080 324° Northwest 277 319 3,900  Level FlightAware
02:14PM 42.5197 -70.7864 324° Northwest  Level FlightAware Approximate
02:14PM 42.3230 -70.8560 77° East 292 336 5,300  Level FlightAware
02:14PM 42.3330 -70.8000 76° East 307 353 6,600 2,820 Climbing FlightAware
02:15PM 42.3490 -70.7580 63° Northeast 308 354 7,900 3,120 Climbing FlightAware
02:15PM 42.3670 -70.7420 33° Northeast 300 345 8,700 3,180 Climbing FlightAware
02:15PM 42.3870 -70.7350 14° North 297 342 9,500 2,460 Climbing FlightAware
02:16PM 42.4410 -70.7180 13° North 310 357 11,000 2,040 Climbing FlightAware
02:16PM 42.4830 -70.7310 347° North 308 354 11,900 2,460 Climbing FlightAware
02:17PM 42.5340 -70.7710 330° Northwest 317 365 13,900 3,240 Climbing FlightAware
02:18PM 42.5720 -70.8440 305° West 306 352 16,500 3,420 Climbing FlightAware
02:18PM 42.6030 -70.9070 304° West 297 342 18,800 3,060 Climbing FlightAware
02:19PM 42.6340 -70.9710 303° West 304 350 20,600 2,220 Climbing FlightAware
02:20PM 42.6700 -71.0430 304° West 318 366 22,000 1,800 Climbing FlightAware
02:20PM 42.7030 -71.1120 303° West 332 382 23,200 1,860 Climbing FlightAware
02:21PM 42.7370 -71.1840 303° West 338 389 24,500 1,860 Climbing FlightAware
02:22PM 42.7750 -71.2670 302° West 351 404 25,900 1,860 Climbing FlightAware
02:23PM 42.7890 -71.3560 282° West 355 409 27,200 1,860 Climbing FlightAware
02:23PM 42.8110 -71.4490 288° West 350 403 28,600 1,860 Climbing FlightAware
02:24PM 42.8380 -71.5400 292° West 354 407 29,900 1,620 Climbing FlightAware
02:25PM 42.8630 -71.6250 292° West 359 413 30,800 1,200 Climbing FlightAware
02:25PM 42.8900 -71.7170 292° West 367 422 31,600 960 Climbing FlightAware
02:26PM 42.9150 -71.8040 291° West 377 434 32,200 960 Climbing FlightAware
02:27PM 42.9450 -71.9070 292° West 383 441 33,000 1,200 Climbing FlightAware
02:27PM 42.9710 -71.9960 292° West 382 440 33,900 1,320 Climbing FlightAware
02:28PM 42.9960 -72.0860 291° West 380 437 34,800 1,320 Climbing FlightAware
02:29PM 43.0180 -72.1870 287° West 377 434 35,800 1,320 Climbing FlightAware
02:30PM 43.0350 -72.2800 284° West 372 428 36,700 1,200 Climbing FlightAware
02:30PM 43.0470 -72.3860 279° West 375 432 37,500 900 Climbing FlightAware
02:31PM 43.0500 -72.4790 273° West 376 433 38,000 360 Climbing FlightAware
02:32PM 43.0540 -72.5740 273° West 372 428 38,000  Level FlightAware
02:32PM 43.0590 -72.6770 274° West 374 430 38,000  Level FlightAware
02:33PM 43.0640 -72.8000 273° West 372 428 38,000  Level FlightAware
02:35PM 43.0720 -72.9930 273° West 371 427 38,000  Level FlightAware
02:35PM 43.0770 -73.0990 274° West 370 426 38,000  Level FlightAware
02:36PM 43.0800 -73.1890 273° West 371 427 38,000  Level FlightAware
02:37PM 43.0840 -73.2750 274° West 371 427 38,000  Level FlightAware
02:37PM 43.0880 -73.3890 273° West 370 426 38,000  Level FlightAware
02:38PM 43.0910 -73.4630 273° West 370 426 38,000  Level FlightAware
02:39PM 43.0950 -73.5620 273° West 371 427 38,000  Level FlightAware
02:40PM 43.1000 -73.7190 273° West 371 427 38,000  Level FlightAware
02:40PM 43.1020 -73.8010 272° West 371 427 38,000  Level FlightAware
02:41PM 43.1040 -73.8610 273° West 371 427 38,000  Level FlightAware
02:42PM 43.1100 -74.0110 273° West 370 426 38,000  Level FlightAware
02:42PM 43.1130 -74.0920 273° West 369 425 38,000  Level FlightAware
02:43PM 43.1150 -74.1750 272° West 369 425 38,000  Level FlightAware
02:44PM 43.1180 -74.2540 273° West 369 425 38,000  Level FlightAware
02:44PM 43.1210 -74.3610 272° West 368 423 38,000  Level FlightAware
02:45PM 43.1240 -74.4690 272° West 367 422 38,000 -60 Level FlightAware
02:46PM 43.1261 -74.5994 272° West 366 421 37,900 -60 Descending Boston Center
02:47PM 43.1317 -74.7417 273° West 366 421 37,900  Level Boston Center
02:48PM 43.1350 -74.8786 272° West 366 421 37,900  Level Boston Center
02:49PM 43.1361 -75.0153 271° West 366 421 38,000  Climbing Boston Center
02:50PM 43.1411 -75.1578 273° West 366 421 38,000  Level Boston Center
02:51PM 43.1442 -75.2944 272° West 366 421 38,000 -60 Level Boston Center
02:52PM 43.1467 -75.4369 271° West 366 421 37,900  Descending Boston Center
02:53PM 43.1494 -75.5736 272° West 366 421 38,000  Climbing Boston Center
02:54PM 43.1539 -75.7106 273° West 366 421 38,000  Level Boston Center
03:00PM 43.1600 -76.5380 273° West 367 422 38,000 -60 Level FlightAware
03:01PM 43.1603 -76.5897 273° West 366 421 37,900  Descending Cleveland Center
03:02PM 43.1608 -76.7264 270° West 366 421 38,000  Climbing Cleveland Center
03:03PM 43.1592 -76.8658 269° West 366 421 38,000  Level Cleveland Center
03:04PM 43.1594 -77.0056 270° West 366 421 38,000  Level Cleveland Center
03:05PM 43.1594 -77.1450 270° West 366 421 38,000  Level Cleveland Center
03:06PM 43.1553 -77.2903 268° West 371 427 38,000  Level Cleveland Center
03:07PM 43.1550 -77.4328 270° West 376 433 38,000  Level Cleveland Center
03:08PM 43.1547 -77.5722 270° West 376 433 38,000  Level Cleveland Center
03:09PM 43.1519 -77.7119 268° West 376 433 38,000  Level Cleveland Center
03:10PM 43.1492 -77.8542 269° West 376 433 38,000  Level Cleveland Center
03:11PM 43.1503 -77.9936 271° West 371 427 38,000  Level Cleveland Center
03:12PM 43.1469 -78.1303 268° West 371 427 38,000  Level Cleveland Center
03:13PM 43.1436 -78.2700 268° West 366 421 38,000  Level Cleveland Center
03:14PM 43.1422 -78.4067 269° West 366 421 38,000  Level Cleveland Center
03:15PM 43.1383 -78.5433 268° West 366 421 38,000  Level Cleveland Center
03:16PM 43.1344 -78.6800 268° West 366 421 38,000  Level Cleveland Center
03:17PM 43.1303 -78.8167 268° West 366 421 38,000  Level Cleveland Center
03:17PM 43.1167 -78.8833 254° West 360 414 38,000  Level Toronto Center
03:18PM 43.1167 -79.0333 270° West 360 414 38,000  Level Toronto Center
03:19PM 43.1167 -79.1833 270° West 360 414 38,000  Level Toronto Center
03:20PM 43.1000 -79.3167 260° West 360 414 38,000  Level Toronto Center
03:21PM 43.1000 -79.4500 270° West 370 426 38,000  Level Toronto Center
03:22PM 43.1000 -79.5833 270° West 370 426 38,000  Level Toronto Center
03:23PM 43.0833 -79.7167 260° West 360 414 38,000  Level Toronto Center
03:24PM 43.0833 -79.8667 270° West 370 426 38,000  Level Toronto Center
03:25PM 43.0833 -80.0000 270° West 360 414 38,000  Level Toronto Center
03:26PM 43.0667 -80.1333 260° West 370 426 38,000  Level Toronto Center
03:27PM 43.0667 -80.2667 270° West 370 426 38,000  Level Toronto Center
03:28PM 43.0667 -80.4333 270° West 370 426 38,000  Level Toronto Center
03:29PM 43.0667 -80.5667 270° West 370 426 38,000  Level Toronto Center
03:30PM 43.0500 -80.7000 260° West 370 426 38,000  Level Toronto Center
03:31PM 43.0333 -80.8500 261° West 370 426 38,000  Level Toronto Center
03:32PM 43.0333 -80.9833 270° West 370 426 38,000  Level Toronto Center
03:34PM 43.0167 -81.2500 265° West 370 426 38,000  Level Toronto Center
03:40PM 43.0180 -82.1550 265° West 372 428 38,000  Level FlightAware
03:41PM 43.0150 -82.2620 268° West 372 428 38,000  Level FlightAware
03:42PM 43.0120 -82.3570 268° West 372 428 38,000  Level FlightAware
03:43PM 43.0100 -82.4360 268° West 371 427 38,000  Level FlightAware
03:43PM 43.0070 -82.5350 268° West 370 426 38,000  Level FlightAware
03:44PM 43.0050 -82.6330 268° West 369 425 38,000  Level FlightAware
03:45PM 43.0020 -82.7390 268° West 368 423 38,000  Level FlightAware
03:46PM 42.9980 -82.8530 267° West 368 423 38,000  Level FlightAware
03:46PM 42.9950 -82.9460 268° West 367 422 38,000  Level FlightAware
03:47PM 42.9920 -83.0310 267° West 369 425 38,000  Level FlightAware
03:47PM 42.9900 -83.1010 268° West 369 425 38,000  Level FlightAware
03:48PM 42.9850 -83.2390 267° West 371 427 38,000  Level FlightAware
03:49PM 42.9810 -83.3430 267° West 373 429 38,000  Level FlightAware
03:50PM 42.9790 -83.4210 268° West 376 433 38,000  Level FlightAware
03:50PM 42.9750 -83.5330 267° West 379 436 38,000  Level FlightAware
03:51PM 42.9710 -83.6370 267° West 378 435 38,000  Level FlightAware
03:52PM 42.9670 -83.7440 267° West 375 432 38,000  Level FlightAware
03:52PM 42.9590 -83.8310 263° West 376 433 38,000  Level FlightAware
03:53PM 42.9510 -83.9160 263° West 375 432 38,000  Level FlightAware
03:54PM 42.9400 -84.0260 262° West 376 433 38,000  Level FlightAware
03:55PM 42.9290 -84.1350 262° West 377 434 38,000  Level FlightAware
03:55PM 42.9200 -84.2320 263° West 378 435 38,000 -720 Level FlightAware
03:56PM 42.9110 -84.3240 262° West 371 427 37,100 -1,920 Descending FlightAware
03:57PM 42.9000 -84.4240 261° West 373 429 35,300 -2,640 Descending FlightAware
03:57PM 42.8910 -84.5150 262° West 380 437 33,400 -2,340 Descending FlightAware
03:58PM 42.8790 -84.6300 262° West 389 448 32,000 -1,020 Descending FlightAware
03:59PM 42.8690 -84.7270 262° West 384 442 32,000  Level FlightAware
03:59PM 42.8590 -84.8220 262° West 388 447 32,000  Level FlightAware
04:00PM 42.8480 -84.9290 262° West 391 450 32,000  Level FlightAware
04:01PM 42.8380 -85.0270 262° West 393 452 32,000  Level FlightAware
04:02PM 42.8260 -85.1380 262° West 393 452 32,000  Level FlightAware
04:02PM 42.8150 -85.2370 261° West 394 453 32,000  Level FlightAware
04:03PM 42.8040 -85.3360 261° West 395 455 32,000  Level FlightAware
04:04PM 42.7930 -85.4440 262° West 396 456 32,000 -300 Level FlightAware
04:04PM 42.7790 -85.5390 259° West 397 457 31,600 -1,200 Descending FlightAware
04:05PM 42.7590 -85.6490 256° West 391 450 30,300 -1,980 Descending FlightAware
04:06PM 42.7420 -85.7450 256° West 384 442 28,800 -2,220 Descending FlightAware
04:06PM 42.7250 -85.8380 256° West 392 451 27,400 -2,280 Descending FlightAware
04:07PM 42.7060 -85.9440 256° West 385 443 25,600 -2,400 Descending FlightAware
04:08PM 42.6890 -86.0380 256° West 378 435 24,000 -2,340 Descending FlightAware
04:08PM 42.6720 -86.1300 256° West 368 423 22,500 -2,340 Descending FlightAware
04:09PM 42.6540 -86.2290 256° West 357 411 20,700 -2,100 Descending FlightAware
04:10PM 42.6370 -86.3160 255° West 347 399 19,600 -1,440 Descending FlightAware
04:11PM 42.6200 -86.4090 256° West 348 400 18,700 -1,200 Descending FlightAware
04:11PM 42.6050 -86.4930 256° West 343 395 17,900 -1,140 Descending FlightAware
04:12PM 42.5890 -86.5750 255° West 338 389 17,200 -1,080 Descending FlightAware
04:13PM 42.5720 -86.6680 256° West 333 383 16,400 -1,140 Descending FlightAware
04:13PM 42.5550 -86.7460 254° West 332 382 15,600 -1,140 Descending FlightAware
04:14PM 42.5280 -86.8450 250° West 326 375 14,700 -1,080 Descending FlightAware
04:15PM 42.5030 -86.9370 250° West 327 376 13,800 -1,080 Descending FlightAware
04:16PM 42.4820 -87.0130 249° West 325 374 13,100 -1,140 Descending FlightAware
04:16PM 42.4580 -87.1020 250° West 319 367 12,200 -1,140 Descending FlightAware
04:17PM 42.4390 -87.1720 250° West 319 367 11,500 -1,140 Descending FlightAware
04:18PM 42.4170 -87.2520 250° West 318 366 10,700 -1,020 Descending FlightAware
04:19PM 42.3950 -87.3310 249° West 320 368 10,100 -480 Descending FlightAware
04:19PM 42.3730 -87.4100 249° West 319 367 10,100  Level FlightAware
04:20PM 42.3500 -87.4940 250° West 318 366 10,100  Level FlightAware
04:20PM 42.3360 -87.5340 245° Southwest 306 352 10,100  Level FlightAware
04:21PM 42.3190 -87.5550 222° Southwest 294 338 10,100 -480 Level FlightAware
04:21PM 42.2930 -87.5830 219° Southwest 278 320 9,800 -1,080 Descending FlightAware
04:21PM 42.2830 -87.5930 216° Southwest 279 321 9,500 -1,920 Descending FlightAware
04:22PM 42.2460 -87.6320 218° Southwest 284 327 8,400 -1,800 Descending FlightAware
04:22PM 42.2310 -87.6480 218° Southwest 286 329 8,000 -1,380 Descending FlightAware
04:22PM 42.2040 -87.6760 218° Southwest 281 323 7,500 -900 Descending FlightAware
04:23PM 42.1770 -87.7060 219° Southwest 263 303 7,200 -420 Descending FlightAware
04:23PM 42.1470 -87.7360 217° Southwest 237 273 7,100 -120 Descending FlightAware
04:24PM 42.1280 -87.7570 219° Southwest 227 261 7,100  Level FlightAware
04:24PM 42.1070 -87.7890 229° Southwest 224 258 7,100  Level FlightAware
04:25PM 42.1000 -87.8070 242° Southwest 223 257 7,100  Level FlightAware
04:25PM 42.0900 -87.8360 245° Southwest 222 255 7,100  Level FlightAware
04:26PM 42.0760 -87.8760 245° Southwest 222 255 7,100  Level FlightAware
04:26PM 42.0690 -87.8940 242° Southwest 224 258 7,100  Level FlightAware
04:26PM 42.0610 -87.9250 251° West 200 230 7,100  Level FlightAware
04:27PM 42.0590 -87.9590 265° West 175 201 7,100  Level FlightAware
04:27PM 42.0570 -87.9870 265° West 173 199 7,100 -120 Level FlightAware
04:28PM 42.0560 -88.0160 267° West 175 201 7,000 -720 Descending FlightAware
04:28PM 42.0540 -88.0470 265° West 176 203 6,400 -1,320 Descending FlightAware
04:29PM 42.0530 -88.0790 268° West 183 211 5,800 -1,320 Descending FlightAware
04:29PM 42.0520 -88.1140 268° West 182 209 5,200 -1,140 Descending FlightAware
04:29PM 42.0510 -88.1430 267° West 182 209 4,800 -1,020 Descending FlightAware
04:30PM 42.0500 -88.1770 268° West 184 212 4,300 -960 Descending FlightAware
04:30PM 42.0490 -88.1940 265° West 183 211 4,100 -300 Descending FlightAware
04:31PM 42.0480 -88.2220 267° West 179 206 4,100  Level FlightAware
04:31PM 42.0450 -88.2540 263° West 178 205 4,100  Level FlightAware
04:31PM 42.0360 -88.2640 220° Southwest 184 212 4,100  Level FlightAware
04:32PM 42.0260 -88.2660 188° South 189 217 4,100  Level FlightAware
04:32PM 42.0010 -88.2610 172° South 192 221 4,100  Level FlightAware
04:32PM 41.9920 -88.2470 131° Southeast 191 220 4,100  Level FlightAware
04:33PM 41.9870 -88.2330 116° Southeast 189 217 4,100  Level FlightAware
04:33PM 41.9760 -88.2070 120° Southeast 193 222 4,100  Level FlightAware
04:33PM 41.9680 -88.1730 108° East 189 217 4,100 -300 Level FlightAware
04:34PM 41.9680 -88.1390 90° East 191 220 3,800 -960 Descending FlightAware
04:35PM 41.9690 -88.0880 88° East 194 223 3,000 -1,140 Descending FlightAware
04:35PM 41.9690 -88.0550 90° East 184 212 2,500 -960 Descending FlightAware
04:35PM 41.9690 -88.0340 90° East 175 201 2,200 -840 Descending FlightAware
04:36PM 41.9690 -88.0100 90° East 154 177 1,900 -840 Descending FlightAware
04:36PM 41.9690 -87.9840 90° East 144 166 1,500 -840 Descending FlightAware
04:37PM 41.9690 -87.9490 90° East 145 167 1,000 -720 Descending FlightAware
04:37PM 41.9690 -87.9330 90° East 143 165 800 -360 Descending FlightAware
04:38PM 41.9690 -87.9060 90° East 144 166 700 -240 Descending FlightAware